sensor_id;sensor_type;location;lat;lon;timestamp;pressure;altitude;pressure_sealevel;temperature;humidity
61528;BME280;47395;42.032;-8.634;2023-04-28T00:00:43;100658.94;;;18.17;77.41
61528;BME280;47395;42.032;-8.634;2023-04-28T00:02:46;100656.53;;;18.13;77.72
61528;BME280;47395;42.032;-8.634;2023-04-28T00:04:49;100663.31;;;18.06;77.73
61528;BME280;47395;42.032;-8.634;2023-04-28T00:06:49;100658.97;;;17.94;77.90
61528;BME280;47395;42.032;-8.634;2023-04-28T00:08:50;100670.34;;;17.96;78.62
61528;BME280;47395;42.032;-8.634;2023-04-28T00:10:51;100662.88;;;17.90;78.35
61528;BME280;47395;42.032;-8.634;2023-04-28T00:12:52;100660.56;;;17.85;78.83
61528;BME280;47395;42.032;-8.634;2023-04-28T00:14:53;100659.72;;;17.84;79.01
61528;BME280;47395;42.032;-8.634;2023-04-28T00:16:54;100662.88;;;17.78;79.31
61528;BME280;47395;42.032;-8.634;2023-04-28T00:18:58;100661.94;;;17.79;79.20
61528;BME280;47395;42.032;-8.634;2023-04-28T00:20:59;100657.06;;;17.73;79.53
61528;BME280;47395;42.032;-8.634;2023-04-28T00:23:01;100663.75;;;17.67;79.57
61528;BME280;47395;42.032;-8.634;2023-04-28T00:25:02;100660.13;;;17.68;79.62
61528;BME280;47395;42.032;-8.634;2023-04-28T00:27:04;100666.53;;;17.66;79.38
61528;BME280;47395;42.032;-8.634;2023-04-28T00:29:05;100661.94;;;17.56;79.93
61528;BME280;47395;42.032;-8.634;2023-04-28T00:31:13;100665.22;;;17.48;80.00
61528;BME280;47395;42.032;-8.634;2023-04-28T00:33:15;100661.56;;;17.49;79.93
61528;BME280;47395;42.032;-8.634;2023-04-28T00:35:16;100651.91;;;17.48;80.18
61528;BME280;47395;42.032;-8.634;2023-04-28T00:37:16;100652.88;;;17.47;80.10
61528;BME280;47395;42.032;-8.634;2023-04-28T00:39:17;100652.88;;;17.47;79.99
61528;BME280;47395;42.032;-8.634;2023-04-28T00:41:18;100645.97;;;17.45;79.86
61528;BME280;47395;42.032;-8.634;2023-04-28T00:43:19;100647.06;;;17.42;80.48
61528;BME280;47395;42.032;-8.634;2023-04-28T00:45:20;100646.81;;;17.45;80.43
61528;BME280;47395;42.032;-8.634;2023-04-28T00:47:22;100638.09;;;17.43;80.31
61528;BME280;47395;42.032;-8.634;2023-04-28T00:49:25;100630.84;;;17.34;80.65
61528;BME280;47395;42.032;-8.634;2023-04-28T00:51:27;100633.28;;;17.37;80.92
61528;BME280;47395;42.032;-8.634;2023-04-28T00:53:29;100627.09;;;17.37;80.99
61528;BME280;47395;42.032;-8.634;2023-04-28T00:55:31;100624.44;;;17.37;81.34
61528;BME280;47395;42.032;-8.634;2023-04-28T00:57:34;100623.81;;;17.44;81.20
61528;BME280;47395;42.032;-8.634;2023-04-28T00:59:35;100618.25;;;17.47;80.88
61528;BME280;47395;42.032;-8.634;2023-04-28T01:01:36;100620.91;;;17.47;81.17
61528;BME280;47395;42.032;-8.634;2023-04-28T01:03:39;100611.72;;;17.40;81.42
61528;BME280;47395;42.032;-8.634;2023-04-28T01:05:40;100613.41;;;17.41;81.14
61528;BME280;47395;42.032;-8.634;2023-04-28T01:07:41;100605.19;;;17.44;81.01
61528;BME280;47395;42.032;-8.634;2023-04-28T01:09:43;100608.44;;;17.48;80.87
61528;BME280;47395;42.032;-8.634;2023-04-28T01:11:46;100614.25;;;17.42;80.97
61528;BME280;47395;42.032;-8.634;2023-04-28T01:14:13;100616.69;;;17.33;81.70
61528;BME280;47395;42.032;-8.634;2023-04-28T01:16:15;100620.44;;;17.42;81.50
61528;BME280;47395;42.032;-8.634;2023-04-28T01:18:16;100616.28;;;17.49;81.05
61528;BME280;47395;42.032;-8.634;2023-04-28T01:20:18;100600.44;;;17.48;80.87
61528;BME280;47395;42.032;-8.634;2023-04-28T01:22:20;100593.19;;;17.50;80.70
61528;BME280;47395;42.032;-8.634;2023-04-28T01:24:21;100594.28;;;17.47;80.69
61528;BME280;47395;42.032;-8.634;2023-04-28T01:26:22;100593.69;;;17.44;80.71
61528;BME280;47395;42.032;-8.634;2023-04-28T01:28:23;100595.09;;;17.48;81.02
61528;BME280;47395;42.032;-8.634;2023-04-28T01:30:24;100595.09;;;17.48;80.76
61528;BME280;47395;42.032;-8.634;2023-04-28T01:32:25;100597.53;;;17.51;80.66
61528;BME280;47395;42.032;-8.634;2023-04-28T01:34:26;100590.53;;;17.50;80.61
61528;BME280;47395;42.032;-8.634;2023-04-28T01:36:27;100598.50;;;17.50;80.84
61528;BME280;47395;42.032;-8.634;2023-04-28T01:38:28;100602.41;;;17.46;81.26
61528;BME280;47395;42.032;-8.634;2023-04-28T01:40:29;100599.03;;;17.44;80.91
61528;BME280;47395;42.032;-8.634;2023-04-28T01:42:31;100591.75;;;17.46;80.79
61528;BME280;47395;42.032;-8.634;2023-04-28T01:44:35;100588.22;;;17.45;80.91
61528;BME280;47395;42.032;-8.634;2023-04-28T01:46:36;100584.84;;;17.43;80.96
61528;BME280;47395;42.032;-8.634;2023-04-28T01:48:37;100564.91;;;17.26;80.26
61528;BME280;47395;42.032;-8.634;2023-04-28T01:50:37;100565.38;;;17.31;80.55
61528;BME280;47395;42.032;-8.634;2023-04-28T01:52:38;100566.47;;;17.29;80.59
61528;BME280;47395;42.032;-8.634;2023-04-28T01:54:39;100571.19;;;17.25;80.68
61528;BME280;47395;42.032;-8.634;2023-04-28T01:56:40;100561.75;;;17.21;80.50
61528;BME280;47395;42.032;-8.634;2023-04-28T01:58:41;100557.63;;;17.17;80.44
61528;BME280;47395;42.032;-8.634;2023-04-28T02:00:43;100558.88;;;17.13;80.31
61528;BME280;47395;42.032;-8.634;2023-04-28T02:02:45;100561.75;;;17.09;80.27
61528;BME280;47395;42.032;-8.634;2023-04-28T02:04:46;100564.50;;;16.96;80.93
61528;BME280;47395;42.032;-8.634;2023-04-28T02:06:47;100553.50;;;17.01;80.83
61528;BME280;47395;42.032;-8.634;2023-04-28T02:08:47;100549.63;;;16.94;81.20
61528;BME280;47395;42.032;-8.634;2023-04-28T02:10:48;100545.41;;;17.03;81.28
61528;BME280;47395;42.032;-8.634;2023-04-28T02:12:49;100536.38;;;17.05;81.67
61528;BME280;47395;42.032;-8.634;2023-04-28T02:14:50;100529.44;;;17.14;81.58
61528;BME280;47395;42.032;-8.634;2023-04-28T02:16:51;100534.75;;;17.14;80.60
61528;BME280;47395;42.032;-8.634;2023-04-28T02:18:52;100535.38;;;17.18;80.58
61528;BME280;47395;42.032;-8.634;2023-04-28T02:20:53;100526.66;;;17.16;80.05
61528;BME280;47395;42.032;-8.634;2023-04-28T02:22:54;100524.63;;;17.19;79.54
61528;BME280;47395;42.032;-8.634;2023-04-28T02:24:56;100526.78;;;17.03;78.82
61528;BME280;47395;42.032;-8.634;2023-04-28T02:26:57;100514.56;;;17.12;79.11
61528;BME280;47395;42.032;-8.634;2023-04-28T02:29:01;100508.41;;;17.11;79.19
61528;BME280;47395;42.032;-8.634;2023-04-28T02:31:07;100513.97;;;17.08;79.24
61528;BME280;47395;42.032;-8.634;2023-04-28T02:33:08;100513.22;;;16.94;78.45
61528;BME280;47395;42.032;-8.634;2023-04-28T02:35:09;100520.41;;;17.05;78.88
61528;BME280;47395;42.032;-8.634;2023-04-28T02:37:10;100518.06;;;17.01;78.92
61528;BME280;47395;42.032;-8.634;2023-04-28T02:39:11;100513.13;;;16.96;79.16
61528;BME280;47395;42.032;-8.634;2023-04-28T02:41:12;100520.97;;;16.98;79.29
61528;BME280;47395;42.032;-8.634;2023-04-28T02:43:15;100519.78;;;17.02;78.80
61528;BME280;47395;42.032;-8.634;2023-04-28T02:45:16;100519.28;;;16.74;79.11
61528;BME280;47395;42.032;-8.634;2023-04-28T02:47:16;100512.63;;;16.79;79.55
61528;BME280;47395;42.032;-8.634;2023-04-28T02:49:17;100512.88;;;16.76;80.01
61528;BME280;47395;42.032;-8.634;2023-04-28T02:51:19;100516.25;;;16.78;79.67
61528;BME280;47395;42.032;-8.634;2023-04-28T02:53:21;100509.84;;;16.81;79.91
61528;BME280;47395;42.032;-8.634;2023-04-28T02:55:22;100509.72;;;16.82;80.02
61528;BME280;47395;42.032;-8.634;2023-04-28T02:57:24;100513.34;;;16.81;79.86
61528;BME280;47395;42.032;-8.634;2023-04-28T02:59:25;100516.25;;;16.78;79.71
61528;BME280;47395;42.032;-8.634;2023-04-28T03:01:26;100511.41;;;16.72;79.85
61528;BME280;47395;42.032;-8.634;2023-04-28T03:03:27;100517.69;;;16.71;79.97
61528;BME280;47395;42.032;-8.634;2023-04-28T03:05:28;100524.97;;;16.69;79.88
61528;BME280;47395;42.032;-8.634;2023-04-28T03:07:29;100518.78;;;16.68;79.83
61528;BME280;47395;42.032;-8.634;2023-04-28T03:09:30;100514.56;;;16.66;79.57
61528;BME280;47395;42.032;-8.634;2023-04-28T03:11:31;100508.13;;;16.57;79.71
61528;BME280;47395;42.032;-8.634;2023-04-28T03:13:32;100510.44;;;16.50;80.14
61528;BME280;47395;42.032;-8.634;2023-04-28T03:15:35;100507.91;;;16.49;80.69
61528;BME280;47395;42.032;-8.634;2023-04-28T03:17:36;100514.69;;;16.53;80.61
61528;BME280;47395;42.032;-8.634;2023-04-28T03:19:41;100501.50;;;16.51;80.63
61528;BME280;47395;42.032;-8.634;2023-04-28T03:21:42;100497.00;;;16.52;80.96
61528;BME280;47395;42.032;-8.634;2023-04-28T03:23:43;100502.34;;;16.52;81.01
61528;BME280;47395;42.032;-8.634;2023-04-28T03:25:44;100494.25;;;16.53;81.15
61528;BME280;47395;42.032;-8.634;2023-04-28T03:27:45;100483.59;;;16.53;81.11
61528;BME280;47395;42.032;-8.634;2023-04-28T03:29:46;100497.50;;;16.57;81.22
61528;BME280;47395;42.032;-8.634;2023-04-28T03:31:48;100491.47;;;16.55;81.02
61528;BME280;47395;42.032;-8.634;2023-04-28T03:33:49;100492.06;;;16.58;81.07
61528;BME280;47395;42.032;-8.634;2023-04-28T03:35:51;100494.38;;;16.63;80.65
61528;BME280;47395;42.032;-8.634;2023-04-28T03:37:53;100491.34;;;16.68;80.18
61528;BME280;47395;42.032;-8.634;2023-04-28T03:39:54;100492.19;;;16.68;80.30
61528;BME280;47395;42.032;-8.634;2023-04-28T03:41:55;100480.56;;;16.69;80.18
61528;BME280;47395;42.032;-8.634;2023-04-28T03:44:19;100488.94;;;16.65;79.93
61528;BME280;47395;42.032;-8.634;2023-04-28T03:46:22;100487.97;;;16.66;80.02
61528;BME280;47395;42.032;-8.634;2023-04-28T03:48:23;100487.25;;;16.64;80.38
61528;BME280;47395;42.032;-8.634;2023-04-28T03:50:24;100487.84;;;16.67;80.13
61528;BME280;47395;42.032;-8.634;2023-04-28T03:52:25;100490.16;;;16.61;80.02
61528;BME280;47395;42.032;-8.634;2023-04-28T03:54:27;100487.97;;;16.66;80.28
61528;BME280;47395;42.032;-8.634;2023-04-28T03:56:28;100478.28;;;16.76;80.56
61528;BME280;47395;42.032;-8.634;2023-04-28T03:58:29;100475.25;;;16.81;80.12
61528;BME280;47395;42.032;-8.634;2023-04-28T04:00:30;100467.53;;;16.78;80.53
61528;BME280;47395;42.032;-8.634;2023-04-28T04:04:55;100472.59;;;16.69;79.96
61528;BME280;47395;42.032;-8.634;2023-04-28T04:06:56;100468.13;;;16.70;80.42
61528;BME280;47395;42.032;-8.634;2023-04-28T04:08:57;100469.47;;;16.64;80.73
61528;BME280;47395;42.032;-8.634;2023-04-28T04:10:58;100475.88;;;16.62;80.48
61528;BME280;47395;42.032;-8.634;2023-04-28T04:12:59;100479.63;;;16.59;80.71
61528;BME280;47395;42.032;-8.634;2023-04-28T04:15:00;100487.22;;;16.52;80.93
61528;BME280;47395;42.032;-8.634;2023-04-28T04:17:01;100489.03;;;16.52;80.69
61528;BME280;47395;42.032;-8.634;2023-04-28T04:19:02;100494.47;;;16.50;80.87
61528;BME280;47395;42.032;-8.634;2023-04-28T04:21:12;100497.50;;;16.46;80.91
61528;BME280;47395;42.032;-8.634;2023-04-28T04:23:14;100493.50;;;16.40;81.05
61528;BME280;47395;42.032;-8.634;2023-04-28T04:25:15;100493.13;;;16.33;80.99
61528;BME280;47395;42.032;-8.634;2023-04-28T04:27:20;100488.88;;;16.19;81.24
61528;BME280;47395;42.032;-8.634;2023-04-28T04:29:21;100479.69;;;16.12;81.55
61528;BME280;47395;42.032;-8.634;2023-04-28T04:31:22;100473.88;;;16.07;81.82
61528;BME280;47395;42.032;-8.634;2023-04-28T04:33:23;100481.22;;;16.03;81.69
61528;BME280;47395;42.032;-8.634;2023-04-28T04:35:24;100487.00;;;15.97;81.78
61528;BME280;47395;42.032;-8.634;2023-04-28T04:37:26;100486.81;;;15.87;81.90
61528;BME280;47395;42.032;-8.634;2023-04-28T04:39:33;100485.59;;;15.79;82.18
61528;BME280;47395;42.032;-8.634;2023-04-28T04:41:34;100488.13;;;15.81;82.45
61528;BME280;47395;42.032;-8.634;2023-04-28T04:43:51;100485.34;;;15.83;82.78
61528;BME280;47395;42.032;-8.634;2023-04-28T04:45:53;100482.69;;;15.83;82.67
61528;BME280;47395;42.032;-8.634;2023-04-28T04:47:54;100483.66;;;15.82;83.04
61528;BME280;47395;42.032;-8.634;2023-04-28T04:49:55;100488.50;;;15.76;83.15
61528;BME280;47395;42.032;-8.634;2023-04-28T04:51:56;100482.44;;;15.74;83.20
61528;BME280;47395;42.032;-8.634;2023-04-28T04:53:58;100483.41;;;15.73;83.24
61528;BME280;47395;42.032;-8.634;2023-04-28T04:55:59;100484.47;;;15.71;83.16
61528;BME280;47395;42.032;-8.634;2023-04-28T04:58:01;100484.59;;;15.69;83.25
61528;BME280;47395;42.032;-8.634;2023-04-28T05:00:31;100482.03;;;15.68;83.58
61528;BME280;47395;42.032;-8.634;2023-04-28T05:02:33;100490.00;;;15.68;83.41
61528;BME280;47395;42.032;-8.634;2023-04-28T05:04:36;100491.09;;;15.65;83.79
61528;BME280;47395;42.032;-8.634;2023-04-28T05:06:37;100495.44;;;15.66;83.90
61528;BME280;47395;42.032;-8.634;2023-04-28T05:08:39;100496.41;;;15.65;84.00
61528;BME280;47395;42.032;-8.634;2023-04-28T05:10:40;100493.75;;;15.65;84.03
61528;BME280;47395;42.032;-8.634;2023-04-28T05:12:42;100497.59;;;15.61;84.08
61528;BME280;47395;42.032;-8.634;2023-04-28T05:14:44;100513.75;;;15.58;83.98
61528;BME280;47395;42.032;-8.634;2023-04-28T05:16:45;100511.31;;;15.55;83.93
61528;BME280;47395;42.032;-8.634;2023-04-28T05:18:50;100516.41;;;15.58;83.77
61528;BME280;47395;42.032;-8.634;2023-04-28T05:20:51;100513.13;;;15.54;84.36
61528;BME280;47395;42.032;-8.634;2023-04-28T05:22:53;100512.28;;;15.53;84.22
61528;BME280;47395;42.032;-8.634;2023-04-28T05:24:54;100510.13;;;15.59;84.50
61528;BME280;47395;42.032;-8.634;2023-04-28T05:26:57;100508.69;;;15.66;84.38
61528;BME280;47395;42.032;-8.634;2023-04-28T05:28:58;100513.47;;;15.74;84.13
61528;BME280;47395;42.032;-8.634;2023-04-28T05:30:59;100519.38;;;15.77;83.67
61528;BME280;47395;42.032;-8.634;2023-04-28T05:33:00;100531.38;;;15.83;83.46
61528;BME280;47395;42.032;-8.634;2023-04-28T05:35:02;100542.72;;;15.85;83.38
61528;BME280;47395;42.032;-8.634;2023-04-28T05:37:03;100546.00;;;15.89;83.56
61528;BME280;47395;42.032;-8.634;2023-04-28T05:39:05;100545.88;;;15.90;83.47
61528;BME280;47395;42.032;-8.634;2023-04-28T05:41:06;100529.72;;;15.93;83.46
61528;BME280;47395;42.032;-8.634;2023-04-28T05:43:07;100552.47;;;15.98;83.37
61528;BME280;47395;42.032;-8.634;2023-04-28T05:45:09;100540.75;;;16.00;83.18
61528;BME280;47395;42.032;-8.634;2023-04-28T05:47:10;100549.47;;;16.02;82.91
61528;BME280;47395;42.032;-8.634;2023-04-28T05:49:11;100551.16;;;16.03;82.68
61528;BME280;47395;42.032;-8.634;2023-04-28T05:51:13;100546.34;;;16.09;82.84
61528;BME280;47395;42.032;-8.634;2023-04-28T05:53:14;100548.78;;;16.12;82.90
61528;BME280;47395;42.032;-8.634;2023-04-28T05:55:15;100556.41;;;16.16;82.73
61528;BME280;47395;42.032;-8.634;2023-04-28T05:57:16;100548.94;;;16.22;82.43
61528;BME280;47395;42.032;-8.634;2023-04-28T05:59:18;100546.03;;;16.25;82.54
61528;BME280;47395;42.032;-8.634;2023-04-28T06:01:20;100554.28;;;16.33;82.37
61528;BME280;47395;42.032;-8.634;2023-04-28T06:03:22;100556.59;;;16.38;82.41
61528;BME280;47395;42.032;-8.634;2023-04-28T06:05:25;100567.22;;;16.38;81.98
61528;BME280;47395;42.032;-8.634;2023-04-28T06:07:28;100569.03;;;16.37;82.16
61528;BME280;47395;42.032;-8.634;2023-04-28T06:09:29;100573.50;;;16.37;82.11
61528;BME280;47395;42.032;-8.634;2023-04-28T06:11:30;100577.88;;;16.38;82.04
61528;BME280;47395;42.032;-8.634;2023-04-28T06:13:31;100576.28;;;16.35;82.08
61528;BME280;47395;42.032;-8.634;2023-04-28T06:15:32;100587.97;;;16.33;82.17
61528;BME280;47395;42.032;-8.634;2023-04-28T06:17:33;100586.19;;;16.33;82.16
61528;BME280;47395;42.032;-8.634;2023-04-28T06:19:34;100589.91;;;16.30;82.34
61528;BME280;47395;42.032;-8.634;2023-04-28T06:21:35;100600.22;;;16.35;81.98
61528;BME280;47395;42.032;-8.634;2023-04-28T06:23:37;100605.00;;;16.30;81.71
61528;BME280;47395;42.032;-8.634;2023-04-28T06:25:40;100611.25;;;16.42;81.47
61528;BME280;47395;42.032;-8.634;2023-04-28T06:27:41;100616.56;;;16.42;81.03
61528;BME280;47395;42.032;-8.634;2023-04-28T06:29:42;100624.28;;;16.45;80.67
61528;BME280;47395;42.032;-8.634;2023-04-28T06:31:42;100625.78;;;16.72;79.61
61528;BME280;47395;42.032;-8.634;2023-04-28T06:33:44;100616.63;;;16.76;78.65
61528;BME280;47395;42.032;-8.634;2023-04-28T06:35:45;100621.56;;;16.58;78.88
61528;BME280;47395;42.032;-8.634;2023-04-28T06:37:48;100632.94;;;16.72;78.56
61528;BME280;47395;42.032;-8.634;2023-04-28T06:39:49;100622.69;;;16.90;78.08
61528;BME280;47395;42.032;-8.634;2023-04-28T06:41:50;100631.31;;;17.05;77.13
61528;BME280;47395;42.032;-8.634;2023-04-28T06:43:52;100628.28;;;17.21;77.30
61528;BME280;47395;42.032;-8.634;2023-04-28T06:45:59;100634.56;;;17.66;75.77
61528;BME280;47395;42.032;-8.634;2023-04-28T06:48:00;100635.50;;;18.32;73.29
61528;BME280;47395;42.032;-8.634;2023-04-28T06:50:02;100633.22;;;19.43;69.37
61528;BME280;47395;42.032;-8.634;2023-04-28T06:52:09;100644.97;;;20.81;63.69
61528;BME280;47395;42.032;-8.634;2023-04-28T06:54:10;100638.56;;;21.49;61.54
61528;BME280;47395;42.032;-8.634;2023-04-28T06:56:11;100643.28;;;21.37;61.26
61528;BME280;47395;42.032;-8.634;2023-04-28T06:58:12;100643.59;;;21.24;61.78
61528;BME280;47395;42.032;-8.634;2023-04-28T07:00:13;100644.13;;;23.02;56.95
61528;BME280;47395;42.032;-8.634;2023-04-28T07:02:14;100658.59;;;23.79;53.83
61528;BME280;47395;42.032;-8.634;2023-04-28T07:04:15;100639.63;;;23.97;53.06
61528;BME280;47395;42.032;-8.634;2023-04-28T07:06:16;100647.94;;;24.20;52.65
61528;BME280;47395;42.032;-8.634;2023-04-28T07:08:17;100656.81;;;23.53;53.82
61528;BME280;47395;42.032;-8.634;2023-04-28T07:10:18;100658.16;;;22.87;55.70
61528;BME280;47395;42.032;-8.634;2023-04-28T07:12:20;100664.78;;;23.01;54.95
61528;BME280;47395;42.032;-8.634;2023-04-28T07:14:20;100668.69;;;22.44;56.45
61528;BME280;47395;42.032;-8.634;2023-04-28T07:16:21;100678.13;;;21.37;59.34
61528;BME280;47395;42.032;-8.634;2023-04-28T07:18:22;100668.31;;;21.18;60.39
61528;BME280;47395;42.032;-8.634;2023-04-28T07:20:23;100666.63;;;21.17;61.23
61528;BME280;47395;42.032;-8.634;2023-04-28T07:22:24;100661.16;;;20.99;61.95
61528;BME280;47395;42.032;-8.634;2023-04-28T07:24:25;100667.25;;;20.91;62.29
61528;BME280;47395;42.032;-8.634;2023-04-28T07:26:26;100669.59;;;21.04;61.85
61528;BME280;47395;42.032;-8.634;2023-04-28T07:28:27;100663.53;;;21.12;61.52
61528;BME280;47395;42.032;-8.634;2023-04-28T07:30:28;100658.19;;;21.12;62.31
61528;BME280;47395;42.032;-8.634;2023-04-28T07:32:29;100658.59;;;21.17;62.17
61528;BME280;47395;42.032;-8.634;2023-04-28T07:34:30;100659.03;;;21.78;60.76
61528;BME280;47395;42.032;-8.634;2023-04-28T07:36:31;100665.13;;;23.06;56.76
61528;BME280;47395;42.032;-8.634;2023-04-28T07:38:35;100661.03;;;24.98;51.80
61528;BME280;47395;42.032;-8.634;2023-04-28T07:40:36;100670.59;;;26.44;47.59
61528;BME280;47395;42.032;-8.634;2023-04-28T07:42:37;100679.13;;;26.33;47.04
61528;BME280;47395;42.032;-8.634;2023-04-28T07:44:38;100691.22;;;25.82;48.20
61528;BME280;47395;42.032;-8.634;2023-04-28T07:46:39;100690.00;;;25.53;48.91
61528;BME280;47395;42.032;-8.634;2023-04-28T07:48:40;100687.31;;;24.96;50.63
61528;BME280;47395;42.032;-8.634;2023-04-28T07:50:41;100689.31;;;24.77;51.03
61528;BME280;47395;42.032;-8.634;2023-04-28T07:52:42;100701.28;;;24.67;51.92
61528;BME280;47395;42.032;-8.634;2023-04-28T07:54:44;100703.44;;;24.21;52.28
61528;BME280;47395;42.032;-8.634;2023-04-28T07:56:44;100705.63;;;24.26;52.56
61528;BME280;47395;42.032;-8.634;2023-04-28T07:58:46;100705.38;;;23.94;53.01
61528;BME280;47395;42.032;-8.634;2023-04-28T08:00:47;100702.28;;;24.24;52.51
61528;BME280;47395;42.032;-8.634;2023-04-28T08:02:48;100693.16;;;24.17;52.54
61528;BME280;47395;42.032;-8.634;2023-04-28T08:04:49;100699.94;;;24.96;51.85
61528;BME280;47395;42.032;-8.634;2023-04-28T08:06:50;100711.06;;;24.93;51.15
61528;BME280;47395;42.032;-8.634;2023-04-28T08:08:51;100713.09;;;25.55;49.94
61528;BME280;47395;42.032;-8.634;2023-04-28T08:10:52;100718.28;;;27.59;45.50
61528;BME280;47395;42.032;-8.634;2023-04-28T08:12:54;100714.88;;;28.24;43.14
61528;BME280;47395;42.032;-8.634;2023-04-28T08:14:55;100709.50;;;27.72;44.90
61528;BME280;47395;42.032;-8.634;2023-04-28T08:16:59;100711.78;;;26.46;46.39
61528;BME280;47395;42.032;-8.634;2023-04-28T08:19:01;100720.88;;;25.90;48.11
61528;BME280;47395;42.032;-8.634;2023-04-28T08:21:02;100721.75;;;25.42;49.41
61528;BME280;47395;42.032;-8.634;2023-04-28T08:23:03;100728.72;;;24.62;51.25
61528;BME280;47395;42.032;-8.634;2023-04-28T08:25:04;100730.38;;;24.46;52.21
61528;BME280;47395;42.032;-8.634;2023-04-28T08:27:05;100721.25;;;25.22;50.87
61528;BME280;47395;42.032;-8.634;2023-04-28T08:29:06;100726.88;;;25.12;50.00
61528;BME280;47395;42.032;-8.634;2023-04-28T08:31:07;100734.22;;;25.84;49.31
61528;BME280;47395;42.032;-8.634;2023-04-28T08:33:08;100736.22;;;26.22;48.24
61528;BME280;47395;42.032;-8.634;2023-04-28T08:35:09;100731.81;;;26.91;47.03
61528;BME280;47395;42.032;-8.634;2023-04-28T08:37:10;100740.38;;;28.74;42.88
61528;BME280;47395;42.032;-8.634;2023-04-28T08:39:11;100750.44;;;29.09;41.30
61528;BME280;47395;42.032;-8.634;2023-04-28T08:41:14;100752.47;;;29.64;39.79
61528;BME280;47395;42.032;-8.634;2023-04-28T08:43:15;100750.81;;;27.96;41.75
61528;BME280;47395;42.032;-8.634;2023-04-28T08:45:16;100747.72;;;29.73;39.82
61528;BME280;47395;42.032;-8.634;2023-04-28T08:47:18;100753.34;;;32.01;35.65
61528;BME280;47395;42.032;-8.634;2023-04-28T08:49:26;100762.22;;;32.86;33.30
61528;BME280;47395;42.032;-8.634;2023-04-28T08:51:40;100769.75;;;33.91;32.29
61528;BME280;47395;42.032;-8.634;2023-04-28T08:53:49;100771.44;;;33.55;32.51
61528;BME280;47395;42.032;-8.634;2023-04-28T08:55:55;100774.19;;;34.35;31.99
61528;BME280;47395;42.032;-8.634;2023-04-28T08:57:56;100786.28;;;33.40;32.82
61528;BME280;47395;42.032;-8.634;2023-04-28T08:59:58;100777.28;;;35.05;30.31
61528;BME280;47395;42.032;-8.634;2023-04-28T09:02:01;100776.91;;;34.66;30.92
61528;BME280;47395;42.032;-8.634;2023-04-28T09:04:02;100779.91;;;35.12;30.54
61528;BME280;47395;42.032;-8.634;2023-04-28T09:06:03;100792.19;;;34.55;30.62
61528;BME280;47395;42.032;-8.634;2023-04-28T09:08:04;100798.00;;;35.49;29.40
61528;BME280;47395;42.032;-8.634;2023-04-28T09:10:21;100796.50;;;36.40;27.40
61528;BME280;47395;42.032;-8.634;2023-04-28T09:12:35;100796.28;;;37.72;26.18
61528;BME280;47395;42.032;-8.634;2023-04-28T09:14:37;100802.13;;;38.26;25.81
61528;BME280;47395;42.032;-8.634;2023-04-28T09:16:39;100795.41;;;38.77;24.25
61528;BME280;47395;42.032;-8.634;2023-04-28T09:18:55;100798.03;;;38.94;24.86
61528;BME280;47395;42.032;-8.634;2023-04-28T09:21:04;100803.66;;;38.44;24.94
61528;BME280;47395;42.032;-8.634;2023-04-28T09:23:18;100800.28;;;37.20;26.78
61528;BME280;47395;42.032;-8.634;2023-04-28T09:25:19;100803.16;;;37.70;25.48
61528;BME280;47395;42.032;-8.634;2023-04-28T09:27:27;100812.16;;;37.65;25.67
61528;BME280;47395;42.032;-8.634;2023-04-28T09:29:28;100811.44;;;36.79;26.40
61528;BME280;47395;42.032;-8.634;2023-04-28T09:31:29;100809.31;;;36.52;26.00
61528;BME280;47395;42.032;-8.634;2023-04-28T09:33:30;100817.66;;;37.87;24.14
61528;BME280;47395;42.032;-8.634;2023-04-28T09:35:44;100818.25;;;39.64;22.13
61528;BME280;47395;42.032;-8.634;2023-04-28T09:37:46;100805.91;;;39.72;23.22
61528;BME280;47395;42.032;-8.634;2023-04-28T09:39:53;100800.41;;;39.77;22.57
61528;BME280;47395;42.032;-8.634;2023-04-28T09:41:54;100794.19;;;40.44;22.12
61528;BME280;47395;42.032;-8.634;2023-04-28T09:44:09;100794.25;;;38.40;23.68
61528;BME280;47395;42.032;-8.634;2023-04-28T09:46:09;100792.78;;;40.72;21.32
61528;BME280;47395;42.032;-8.634;2023-04-28T09:48:10;100793.00;;;37.31;24.47
61528;BME280;47395;42.032;-8.634;2023-04-28T09:50:13;100788.88;;;35.60;26.14
61528;BME280;47395;42.032;-8.634;2023-04-28T09:52:14;100796.41;;;36.06;26.95
61528;BME280;47395;42.032;-8.634;2023-04-28T09:54:20;100789.44;;;35.21;27.11
61528;BME280;47395;42.032;-8.634;2023-04-28T09:56:23;100788.78;;;35.79;27.95
61528;BME280;47395;42.032;-8.634;2023-04-28T09:58:26;100779.66;;;35.37;26.54
61528;BME280;47395;42.032;-8.634;2023-04-28T10:00:28;100772.16;;;34.61;27.52
61528;BME280;47395;42.032;-8.634;2023-04-28T10:02:30;100767.56;;;34.55;27.71
61528;BME280;47395;42.032;-8.634;2023-04-28T10:04:33;100767.50;;;34.61;27.84
61528;BME280;47395;42.032;-8.634;2023-04-28T10:06:34;100763.19;;;34.54;29.13
61528;BME280;47395;42.032;-8.634;2023-04-28T10:08:38;100758.41;;;35.98;27.18
61528;BME280;47395;42.032;-8.634;2023-04-28T10:10:40;100764.97;;;37.51;25.65
61528;BME280;47395;42.032;-8.634;2023-04-28T10:12:41;100767.84;;;37.84;24.29
61528;BME280;47395;42.032;-8.634;2023-04-28T10:14:44;100780.31;;;36.90;25.53
61528;BME280;47395;42.032;-8.634;2023-04-28T10:16:48;100785.22;;;36.88;25.27
61528;BME280;47395;42.032;-8.634;2023-04-28T10:18:52;100791.16;;;35.75;25.96
61528;BME280;47395;42.032;-8.634;2023-04-28T10:21:00;100789.97;;;35.71;26.44
61528;BME280;47395;42.032;-8.634;2023-04-28T10:25:47;100808.44;;;37.15;24.92
61528;BME280;47395;42.032;-8.634;2023-04-28T10:27:49;100814.28;;;36.67;25.29
61528;BME280;47395;42.032;-8.634;2023-04-28T10:29:54;100810.06;;;37.33;26.00
61528;BME280;47395;42.032;-8.634;2023-04-28T10:32:20;100810.09;;;38.00;24.11
61528;BME280;47395;42.032;-8.634;2023-04-28T10:34:22;100824.53;;;38.40;24.22
61528;BME280;47395;42.032;-8.634;2023-04-28T10:36:49;100821.19;;;38.98;24.35